EPKK/KRK METAR and TAF weather

Enter ICAO airport designator
Station Type Date Time Source
EPKK METAR 2018/07/21 11:30 UTC NOAA

EPKK 211130Z VRB05KT 9999 FEW056 27/14 Q1012


Station Type Date Time Source
EPKK Decoded METAR 2018/07/21 11:30 UTC NOAA

Krakow, Poland (EPKK) 50-05N 019-48E 237M
Jul 21, 2018 - 07:30 AM EDT / 2018.07.21 1130 UTC
Wind: Variable at 6 MPH (5 KT):0
Visibility: greater than 7 mile(s):0
Sky conditions: mostly clear
Temperature: 80 F (27 C)
Dew Point: 57 F (14 C)
Relative Humidity: 44%
Pressure (altimeter): 29.88 in. Hg (1012 hPa)
ob: EPKK 211130Z VRB05KT 9999 FEW056 27/14 Q1012
cycle: 11

Station Type Date Time Source
EPKK TAF 2018/07/21 12:37 UTC NOAA

TAF EPKK 211130Z 2112/2212 25008KT CAVOK
BECMG 2209/2212 08010KT


Example: see airport list